sensor_id;sensor_type;location;lat;lon;timestamp;pressure;altitude;pressure_sealevel;temperature;humidity
61697;BME280;47610;52.252;20.922;2023-09-19T00:00:42;99601.70;;;20.13;100.00
61697;BME280;47610;52.252;20.922;2023-09-19T00:05:45;99596.93;;;20.10;100.00
61697;BME280;47610;52.252;20.922;2023-09-19T00:10:48;99593.02;;;20.04;100.00
61697;BME280;47610;52.252;20.922;2023-09-19T00:15:51;99594.02;;;19.96;100.00
61697;BME280;47610;52.252;20.922;2023-09-19T00:20:58;99594.31;;;19.87;100.00
61697;BME280;47610;52.252;20.922;2023-09-19T00:26:01;99594.94;;;19.81;100.00
61697;BME280;47610;52.252;20.922;2023-09-19T00:31:04;99592.17;;;19.73;100.00
61697;BME280;47610;52.252;20.922;2023-09-19T00:36:10;99589.13;;;19.69;100.00
61697;BME280;47610;52.252;20.922;2023-09-19T00:41:13;99583.55;;;19.65;100.00
61697;BME280;47610;52.252;20.922;2023-09-19T00:46:18;99577.96;;;19.62;100.00
61697;BME280;47610;52.252;20.922;2023-09-19T00:51:22;99579.09;;;19.63;100.00
61697;BME280;47610;52.252;20.922;2023-09-19T00:56:26;99577.69;;;19.58;100.00
61697;BME280;47610;52.252;20.922;2023-09-19T01:01:29;99576.14;;;19.51;100.00
61697;BME280;47610;52.252;20.922;2023-09-19T01:06:32;99567.89;;;19.45;100.00
61697;BME280;47610;52.252;20.922;2023-09-19T01:11:40;99564.83;;;19.43;100.00
61697;BME280;47610;52.252;20.922;2023-09-19T01:16:53;99559.89;;;19.41;100.00
61697;BME280;47610;52.252;20.922;2023-09-19T01:22:04;99557.40;;;19.34;100.00
61697;BME280;47610;52.252;20.922;2023-09-19T01:27:25;99543.34;;;19.27;100.00
61697;BME280;47610;52.252;20.922;2023-09-19T01:32:36;99541.14;;;19.26;100.00
61697;BME280;47610;52.252;20.922;2023-09-19T01:37:39;99538.73;;;19.26;100.00
61697;BME280;47610;52.252;20.922;2023-09-19T01:42:45;99535.16;;;19.26;100.00
61697;BME280;47610;52.252;20.922;2023-09-19T01:47:53;99523.55;;;19.24;100.00
61697;BME280;47610;52.252;20.922;2023-09-19T01:53:01;99520.84;;;19.19;100.00
61697;BME280;47610;52.252;20.922;2023-09-19T01:58:12;99515.14;;;19.15;100.00
61697;BME280;47610;52.252;20.922;2023-09-19T02:03:17;99515.21;;;19.14;100.00
61697;BME280;47610;52.252;20.922;2023-09-19T02:08:22;99516.42;;;19.12;100.00
61697;BME280;47610;52.252;20.922;2023-09-19T02:13:25;99515.64;;;19.10;100.00
61697;BME280;47610;52.252;20.922;2023-09-19T02:18:28;99508.58;;;19.03;100.00
61697;BME280;47610;52.252;20.922;2023-09-19T02:23:32;99506.62;;;18.96;100.00
61697;BME280;47610;52.252;20.922;2023-09-19T02:28:35;99497.91;;;18.93;100.00
61697;BME280;47610;52.252;20.922;2023-09-19T02:33:38;99495.13;;;18.93;100.00
61697;BME280;47610;52.252;20.922;2023-09-19T02:38:41;99485.79;;;18.92;100.00
61697;BME280;47610;52.252;20.922;2023-09-19T02:43:44;99485.28;;;18.90;100.00
61697;BME280;47610;52.252;20.922;2023-09-19T02:48:47;99486.30;;;18.87;100.00
61697;BME280;47610;52.252;20.922;2023-09-19T02:53:50;99479.31;;;18.88;100.00
61697;BME280;47610;52.252;20.922;2023-09-19T02:58:53;99477.36;;;18.86;100.00
61697;BME280;47610;52.252;20.922;2023-09-19T03:03:57;99468.02;;;18.81;100.00
61697;BME280;47610;52.252;20.922;2023-09-19T03:09:00;99467.05;;;18.78;100.00
61697;BME280;47610;52.252;20.922;2023-09-19T03:14:03;99465.20;;;18.73;100.00
61697;BME280;47610;52.252;20.922;2023-09-19T03:19:06;99463.50;;;18.66;100.00
61697;BME280;47610;52.252;20.922;2023-09-19T03:24:09;99465.52;;;18.59;100.00
61697;BME280;47610;52.252;20.922;2023-09-19T03:29:12;99462.48;;;18.54;100.00
61697;BME280;47610;52.252;20.922;2023-09-19T03:34:15;99458.27;;;18.54;100.00
61697;BME280;47610;52.252;20.922;2023-09-19T03:39:19;99462.29;;;18.56;100.00
61697;BME280;47610;52.252;20.922;2023-09-19T03:44:22;99451.13;;;18.52;100.00
61697;BME280;47610;52.252;20.922;2023-09-19T03:49:25;99445.27;;;18.48;100.00
61697;BME280;47610;52.252;20.922;2023-09-19T03:54:28;99448.75;;;18.47;100.00
61697;BME280;47610;52.252;20.922;2023-09-19T03:59:31;99448.50;;;18.44;100.00
61697;BME280;47610;52.252;20.922;2023-09-19T04:04:34;99444.70;;;18.42;100.00
61697;BME280;47610;52.252;20.922;2023-09-19T04:09:37;99438.53;;;18.43;100.00
61697;BME280;47610;52.252;20.922;2023-09-19T04:14:40;99426.30;;;18.42;100.00
61697;BME280;47610;52.252;20.922;2023-09-19T04:19:43;99426.11;;;18.41;100.00
61697;BME280;47610;52.252;20.922;2023-09-19T04:24:47;99423.66;;;18.41;100.00
61697;BME280;47610;52.252;20.922;2023-09-19T04:29:50;99422.02;;;18.45;100.00
61697;BME280;47610;52.252;20.922;2023-09-19T04:34:53;99416.35;;;18.42;100.00
61697;BME280;47610;52.252;20.922;2023-09-19T04:39:56;99416.29;;;18.40;100.00
61697;BME280;47610;52.252;20.922;2023-09-19T04:44:59;99413.15;;;18.39;100.00
61697;BME280;47610;52.252;20.922;2023-09-19T04:50:02;99412.05;;;18.40;100.00
61697;BME280;47610;52.252;20.922;2023-09-19T04:55:06;99411.77;;;18.41;100.00
61697;BME280;47610;52.252;20.922;2023-09-19T05:00:08;99409.64;;;18.44;100.00
61697;BME280;47610;52.252;20.922;2023-09-19T05:05:12;99409.73;;;18.44;100.00
61697;BME280;47610;52.252;20.922;2023-09-19T05:10:15;99402.65;;;18.50;100.00
61697;BME280;47610;52.252;20.922;2023-09-19T05:15:18;99403.63;;;18.61;100.00
61697;BME280;47610;52.252;20.922;2023-09-19T05:20:22;99405.91;;;18.69;100.00
61697;BME280;47610;52.252;20.922;2023-09-19T05:25:25;99404.02;;;18.72;100.00
61697;BME280;47610;52.252;20.922;2023-09-19T05:30:28;99398.85;;;18.73;100.00
61697;BME280;47610;52.252;20.922;2023-09-19T05:35:32;99402.48;;;18.72;100.00
61697;BME280;47610;52.252;20.922;2023-09-19T05:40:35;99402.73;;;18.69;100.00
61697;BME280;47610;52.252;20.922;2023-09-19T05:45:38;99402.25;;;18.66;100.00
61697;BME280;47610;52.252;20.922;2023-09-19T05:50:41;99398.88;;;18.68;100.00
61697;BME280;47610;52.252;20.922;2023-09-19T05:55:44;99393.91;;;18.73;100.00
61697;BME280;47610;52.252;20.922;2023-09-19T06:00:47;99409.73;;;18.84;100.00
61697;BME280;47610;52.252;20.922;2023-09-19T06:05:51;99417.84;;;19.03;100.00
61697;BME280;47610;52.252;20.922;2023-09-19T06:10:54;99420.95;;;19.18;100.00
61697;BME280;47610;52.252;20.922;2023-09-19T06:15:57;99427.48;;;19.39;100.00
61697;BME280;47610;52.252;20.922;2023-09-19T06:21:00;99426.48;;;19.52;100.00
61697;BME280;47610;52.252;20.922;2023-09-19T06:26:03;99433.55;;;19.57;100.00
61697;BME280;47610;52.252;20.922;2023-09-19T06:31:06;99431.98;;;19.70;100.00
61697;BME280;47610;52.252;20.922;2023-09-19T06:36:09;99435.94;;;19.88;100.00
61697;BME280;47610;52.252;20.922;2023-09-19T06:41:12;99436.30;;;19.96;100.00
61697;BME280;47610;52.252;20.922;2023-09-19T06:46:15;99439.98;;;20.16;100.00
61697;BME280;47610;52.252;20.922;2023-09-19T06:51:19;99443.39;;;20.46;100.00
61697;BME280;47610;52.252;20.922;2023-09-19T06:56:22;99443.04;;;20.78;100.00
61697;BME280;47610;52.252;20.922;2023-09-19T07:01:25;99444.77;;;21.02;100.00
61697;BME280;47610;52.252;20.922;2023-09-19T07:06:28;99454.27;;;21.25;100.00
61697;BME280;47610;52.252;20.922;2023-09-19T07:11:31;99450.70;;;21.43;100.00
61697;BME280;47610;52.252;20.922;2023-09-19T07:16:35;99459.17;;;21.60;100.00
61697;BME280;47610;52.252;20.922;2023-09-19T07:21:38;99465.41;;;21.69;100.00
61697;BME280;47610;52.252;20.922;2023-09-19T07:26:41;99471.44;;;21.79;100.00
61697;BME280;47610;52.252;20.922;2023-09-19T07:31:44;99469.80;;;21.95;100.00
61697;BME280;47610;52.252;20.922;2023-09-19T07:36:47;99479.58;;;22.19;100.00
61697;BME280;47610;52.252;20.922;2023-09-19T07:41:50;99488.20;;;22.39;100.00
61697;BME280;47610;52.252;20.922;2023-09-19T07:46:53;99494.45;;;22.43;100.00
61697;BME280;47610;52.252;20.922;2023-09-19T07:51:57;99502.58;;;22.35;100.00
61697;BME280;47610;52.252;20.922;2023-09-19T07:57:00;99508.39;;;22.27;100.00
61697;BME280;47610;52.252;20.922;2023-09-19T08:02:03;99509.21;;;22.20;100.00
61697;BME280;47610;52.252;20.922;2023-09-19T08:07:06;99501.33;;;22.14;100.00
61697;BME280;47610;52.252;20.922;2023-09-19T08:12:09;99503.58;;;22.09;100.00
61697;BME280;47610;52.252;20.922;2023-09-19T08:17:12;99516.48;;;22.15;100.00
61697;BME280;47610;52.252;20.922;2023-09-19T08:22:15;99527.45;;;22.23;100.00
61697;BME280;47610;52.252;20.922;2023-09-19T08:27:19;99530.42;;;22.28;100.00
61697;BME280;47610;52.252;20.922;2023-09-19T08:32:22;99532.34;;;22.38;100.00
61697;BME280;47610;52.252;20.922;2023-09-19T08:37:25;99539.16;;;22.48;100.00
61697;BME280;47610;52.252;20.922;2023-09-19T08:42:28;99539.70;;;22.47;100.00
61697;BME280;47610;52.252;20.922;2023-09-19T08:47:37;99533.45;;;22.42;100.00
61697;BME280;47610;52.252;20.922;2023-09-19T08:52:44;99527.46;;;22.39;100.00
61697;BME280;47610;52.252;20.922;2023-09-19T08:57:50;99523.01;;;22.34;100.00
61697;BME280;47610;52.252;20.922;2023-09-19T09:02:55;99524.61;;;22.34;100.00
61697;BME280;47610;52.252;20.922;2023-09-19T09:07:57;99522.08;;;22.27;100.00
61697;BME280;47610;52.252;20.922;2023-09-19T09:13:01;99525.04;;;22.09;100.00
61697;BME280;47610;52.252;20.922;2023-09-19T09:18:05;99539.11;;;22.03;100.00
61697;BME280;47610;52.252;20.922;2023-09-19T09:23:08;99545.33;;;21.94;100.00
61697;BME280;47610;52.252;20.922;2023-09-19T09:28:11;99565.21;;;21.82;100.00
61697;BME280;47610;52.252;20.922;2023-09-19T09:33:16;99576.70;;;21.67;100.00
61697;BME280;47610;52.252;20.922;2023-09-19T09:38:19;99569.58;;;21.48;100.00
61697;BME280;47610;52.252;20.922;2023-09-19T09:43:30;99583.82;;;21.30;100.00
61697;BME280;47610;52.252;20.922;2023-09-19T09:48:34;99594.43;;;21.21;100.00
61697;BME280;47610;52.252;20.922;2023-09-19T09:53:37;99600.38;;;21.15;100.00
61697;BME280;47610;52.252;20.922;2023-09-19T09:58:51;99607.98;;;21.09;100.00
61697;BME280;47610;52.252;20.922;2023-09-19T10:03:58;99596.48;;;21.02;100.00
61697;BME280;47610;52.252;20.922;2023-09-19T10:09:02;99596.45;;;21.00;100.00
61697;BME280;47610;52.252;20.922;2023-09-19T10:14:07;99590.09;;;21.02;100.00
61697;BME280;47610;52.252;20.922;2023-09-19T10:19:11;99593.65;;;21.04;100.00
61697;BME280;47610;52.252;20.922;2023-09-19T10:24:18;99606.56;;;21.10;100.00
61697;BME280;47610;52.252;20.922;2023-09-19T10:29:20;99612.42;;;21.18;100.00
61697;BME280;47610;52.252;20.922;2023-09-19T10:34:25;99611.94;;;21.24;100.00
61697;BME280;47610;52.252;20.922;2023-09-19T10:39:31;99609.42;;;21.34;100.00
61697;BME280;47610;52.252;20.922;2023-09-19T10:44:38;99608.91;;;21.43;100.00
61697;BME280;47610;52.252;20.922;2023-09-19T10:49:45;99612.67;;;21.46;100.00
61697;BME280;47610;52.252;20.922;2023-09-19T10:54:52;99612.80;;;21.48;100.00
61697;BME280;47610;52.252;20.922;2023-09-19T11:00:06;99618.92;;;21.51;100.00
61697;BME280;47610;52.252;20.922;2023-09-19T11:05:14;99625.25;;;21.55;100.00
61697;BME280;47610;52.252;20.922;2023-09-19T11:10:45;99629.17;;;21.55;100.00
61697;BME280;47610;52.252;20.922;2023-09-19T11:16:18;99627.83;;;21.55;100.00
61697;BME280;47610;52.252;20.922;2023-09-19T11:27:11;99630.67;;;21.58;100.00
61697;BME280;47610;52.252;20.922;2023-09-19T11:32:14;99625.95;;;21.58;100.00
61697;BME280;47610;52.252;20.922;2023-09-19T11:42:48;99630.66;;;21.57;100.00
61697;BME280;47610;52.252;20.922;2023-09-19T11:47:51;99634.72;;;21.56;100.00
61697;BME280;47610;52.252;20.922;2023-09-19T11:52:55;99632.67;;;21.54;100.00
61697;BME280;47610;52.252;20.922;2023-09-19T11:57:58;99635.95;;;21.54;100.00
61697;BME280;47610;52.252;20.922;2023-09-19T12:03:09;99638.53;;;21.51;100.00
61697;BME280;47610;52.252;20.922;2023-09-19T12:08:16;99648.91;;;21.46;100.00
61697;BME280;47610;52.252;20.922;2023-09-19T12:13:19;99650.46;;;21.44;100.00
61697;BME280;47610;52.252;20.922;2023-09-19T12:18:29;99649.53;;;21.45;100.00
61697;BME280;47610;52.252;20.922;2023-09-19T12:23:32;99655.44;;;21.49;100.00
61697;BME280;47610;52.252;20.922;2023-09-19T12:28:42;99664.50;;;21.49;100.00
61697;BME280;47610;52.252;20.922;2023-09-19T12:33:46;99659.80;;;21.43;100.00
61697;BME280;47610;52.252;20.922;2023-09-19T12:38:55;99659.20;;;21.35;100.00
61697;BME280;47610;52.252;20.922;2023-09-19T12:43:58;99665.02;;;21.31;100.00
61697;BME280;47610;52.252;20.922;2023-09-19T12:49:16;99666.52;;;21.26;100.00
61697;BME280;47610;52.252;20.922;2023-09-19T12:54:19;99666.59;;;21.22;100.00
61697;BME280;47610;52.252;20.922;2023-09-19T12:59:30;99662.89;;;21.18;100.00
61697;BME280;47610;52.252;20.922;2023-09-19T13:04:34;99660.39;;;21.17;100.00
61697;BME280;47610;52.252;20.922;2023-09-19T13:09:37;99661.44;;;21.18;100.00
61697;BME280;47610;52.252;20.922;2023-09-19T13:14:40;99660.41;;;21.15;100.00
61697;BME280;47610;52.252;20.922;2023-09-19T13:19:44;99660.89;;;21.15;100.00
61697;BME280;47610;52.252;20.922;2023-09-19T13:24:48;99662.98;;;21.16;100.00
61697;BME280;47610;52.252;20.922;2023-09-19T13:29:51;99667.04;;;21.17;100.00
61697;BME280;47610;52.252;20.922;2023-09-19T13:34:54;99670.10;;;21.19;100.00
61697;BME280;47610;52.252;20.922;2023-09-19T13:39:58;99671.50;;;21.20;100.00
61697;BME280;47610;52.252;20.922;2023-09-19T13:45:01;99674.80;;;21.22;100.00
61697;BME280;47610;52.252;20.922;2023-09-19T13:50:05;99674.75;;;21.23;100.00
61697;BME280;47610;52.252;20.922;2023-09-19T13:55:09;99674.08;;;21.24;100.00
61697;BME280;47610;52.252;20.922;2023-09-19T14:00:14;99672.48;;;21.26;100.00
61697;BME280;47610;52.252;20.922;2023-09-19T14:05:17;99671.45;;;21.25;100.00
61697;BME280;47610;52.252;20.922;2023-09-19T14:10:21;99674.23;;;21.25;100.00
61697;BME280;47610;52.252;20.922;2023-09-19T14:15:24;99675.17;;;21.27;100.00
61697;BME280;47610;52.252;20.922;2023-09-19T14:20:27;99679.42;;;21.28;100.00
61697;BME280;47610;52.252;20.922;2023-09-19T14:25:30;99684.06;;;21.48;100.00
61697;BME280;47610;52.252;20.922;2023-09-19T14:30:34;99686.80;;;21.63;100.00
61697;BME280;47610;52.252;20.922;2023-09-19T14:35:39;99685.57;;;21.70;100.00
61697;BME280;47610;52.252;20.922;2023-09-19T14:40:42;99692.79;;;21.74;100.00
61697;BME280;47610;52.252;20.922;2023-09-19T14:45:45;99692.66;;;21.57;100.00
61697;BME280;47610;52.252;20.922;2023-09-19T14:50:48;99698.11;;;21.40;100.00
61697;BME280;47610;52.252;20.922;2023-09-19T14:55:51;99702.35;;;21.20;100.00
61697;BME280;47610;52.252;20.922;2023-09-19T15:00:54;99700.70;;;20.95;100.00
61697;BME280;47610;52.252;20.922;2023-09-19T15:06:04;99708.16;;;20.86;100.00
61697;BME280;47610;52.252;20.922;2023-09-19T15:11:06;99709.17;;;20.82;100.00
61697;BME280;47610;52.252;20.922;2023-09-19T15:16:09;99706.02;;;20.68;100.00
61697;BME280;47610;52.252;20.922;2023-09-19T15:21:13;99709.90;;;20.64;100.00
61697;BME280;47610;52.252;20.922;2023-09-19T15:26:16;99711.98;;;20.60;100.00
61697;BME280;47610;52.252;20.922;2023-09-19T15:31:20;99712.10;;;20.53;100.00
61697;BME280;47610;52.252;20.922;2023-09-19T15:36:23;99713.77;;;20.47;100.00
61697;BME280;47610;52.252;20.922;2023-09-19T15:41:27;99713.30;;;20.39;100.00
61697;BME280;47610;52.252;20.922;2023-09-19T15:46:29;99718.63;;;20.38;100.00
61697;BME280;47610;52.252;20.922;2023-09-19T15:51:33;99724.82;;;20.39;100.00
61697;BME280;47610;52.252;20.922;2023-09-19T15:56:36;99726.80;;;20.40;100.00
61697;BME280;47610;52.252;20.922;2023-09-19T16:01:40;99727.02;;;20.41;100.00
61697;BME280;47610;52.252;20.922;2023-09-19T16:06:44;99734.59;;;20.41;100.00
61697;BME280;47610;52.252;20.922;2023-09-19T16:11:47;99742.25;;;20.34;100.00
61697;BME280;47610;52.252;20.922;2023-09-19T16:16:50;99746.30;;;20.34;100.00
61697;BME280;47610;52.252;20.922;2023-09-19T16:21:53;99751.46;;;20.36;100.00
61697;BME280;47610;52.252;20.922;2023-09-19T16:26:56;99750.50;;;20.33;100.00
61697;BME280;47610;52.252;20.922;2023-09-19T16:31:59;99753.55;;;20.24;100.00
61697;BME280;47610;52.252;20.922;2023-09-19T16:37:03;99763.93;;;20.22;100.00
61697;BME280;47610;52.252;20.922;2023-09-19T16:42:06;99771.80;;;20.18;100.00
61697;BME280;47610;52.252;20.922;2023-09-19T16:47:09;99770.70;;;20.18;100.00
61697;BME280;47610;52.252;20.922;2023-09-19T16:52:12;99777.36;;;20.25;100.00
61697;BME280;47610;52.252;20.922;2023-09-19T16:57:16;99781.12;;;20.31;100.00
61697;BME280;47610;52.252;20.922;2023-09-19T17:02:19;99781.83;;;20.36;100.00
61697;BME280;47610;52.252;20.922;2023-09-19T17:07:22;99790.66;;;20.41;100.00
61697;BME280;47610;52.252;20.922;2023-09-19T17:12:25;99797.64;;;20.45;100.00
61697;BME280;47610;52.252;20.922;2023-09-19T17:17:28;99806.76;;;20.48;100.00
61697;BME280;47610;52.252;20.922;2023-09-19T17:22:31;99814.09;;;20.48;100.00
61697;BME280;47610;52.252;20.922;2023-09-19T17:27:34;99817.14;;;20.42;100.00
61697;BME280;47610;52.252;20.922;2023-09-19T17:32:38;99821.30;;;20.40;100.00
61697;BME280;47610;52.252;20.922;2023-09-19T17:37:41;99825.34;;;20.36;100.00
61697;BME280;47610;52.252;20.922;2023-09-19T17:42:44;99827.23;;;20.32;100.00
61697;BME280;47610;52.252;20.922;2023-09-19T17:47:47;99837.20;;;20.29;100.00
61697;BME280;47610;52.252;20.922;2023-09-19T17:52:50;99840.05;;;20.26;100.00
61697;BME280;47610;52.252;20.922;2023-09-19T17:57:53;99851.30;;;20.19;100.00
61697;BME280;47610;52.252;20.922;2023-09-19T18:02:56;99858.07;;;20.14;100.00
61697;BME280;47610;52.252;20.922;2023-09-19T18:07:59;99867.39;;;20.08;100.00
61697;BME280;47610;52.252;20.922;2023-09-19T18:13:02;99870.35;;;20.01;100.00
61697;BME280;47610;52.252;20.922;2023-09-19T18:18:06;99878.33;;;19.95;100.00
61697;BME280;47610;52.252;20.922;2023-09-19T18:23:09;99884.20;;;19.89;100.00
61697;BME280;47610;52.252;20.922;2023-09-19T18:28:12;99891.25;;;19.83;100.00
61697;BME280;47610;52.252;20.922;2023-09-19T18:33:15;99892.98;;;19.77;100.00
61697;BME280;47610;52.252;20.922;2023-09-19T18:38:18;99894.52;;;19.70;100.00
61697;BME280;47610;52.252;20.922;2023-09-19T18:43:21;99902.48;;;19.63;100.00
61697;BME280;47610;52.252;20.922;2023-09-19T18:48:25;99907.92;;;19.54;100.00
61697;BME280;47610;52.252;20.922;2023-09-19T18:53:28;99905.63;;;19.26;100.00
61697;BME280;47610;52.252;20.922;2023-09-19T18:58:31;99908.77;;;19.09;100.00
61697;BME280;47610;52.252;20.922;2023-09-19T19:03:34;99909.89;;;18.93;100.00
61697;BME280;47610;52.252;20.922;2023-09-19T19:08:38;99910.81;;;18.65;100.00
61697;BME280;47610;52.252;20.922;2023-09-19T19:13:42;99912.80;;;18.46;100.00
61697;BME280;47610;52.252;20.922;2023-09-19T19:18:45;99917.41;;;18.48;100.00
61697;BME280;47610;52.252;20.922;2023-09-19T19:23:49;99915.21;;;18.53;100.00
61697;BME280;47610;52.252;20.922;2023-09-19T19:28:52;99923.13;;;18.58;100.00
61697;BME280;47610;52.252;20.922;2023-09-19T19:33:55;99923.46;;;18.61;100.00
61697;BME280;47610;52.252;20.922;2023-09-19T19:38:59;99926.81;;;18.60;100.00
61697;BME280;47610;52.252;20.922;2023-09-19T19:44:02;99923.32;;;18.59;100.00
61697;BME280;47610;52.252;20.922;2023-09-19T19:49:05;99921.85;;;18.51;100.00
61697;BME280;47610;52.252;20.922;2023-09-19T19:54:08;99928.09;;;18.45;100.00
61697;BME280;47610;52.252;20.922;2023-09-19T19:59:11;99928.09;;;18.41;100.00
61697;BME280;47610;52.252;20.922;2023-09-19T20:04:14;99928.35;;;18.40;100.00
61697;BME280;47610;52.252;20.922;2023-09-19T20:09:17;99927.89;;;18.36;100.00
61697;BME280;47610;52.252;20.922;2023-09-19T20:14:20;99927.77;;;18.31;100.00
61697;BME280;47610;52.252;20.922;2023-09-19T20:19:23;99932.00;;;18.25;100.00
61697;BME280;47610;52.252;20.922;2023-09-19T20:24:27;99934.14;;;18.19;100.00
61697;BME280;47610;52.252;20.922;2023-09-19T20:29:30;99935.11;;;18.11;100.00
61697;BME280;47610;52.252;20.922;2023-09-19T20:34:35;99937.27;;;18.06;100.00
61697;BME280;47610;52.252;20.922;2023-09-19T20:39:39;99939.73;;;17.98;100.00
61697;BME280;47610;52.252;20.922;2023-09-19T20:44:42;99942.46;;;17.92;100.00
61697;BME280;47610;52.252;20.922;2023-09-19T20:49:45;99943.20;;;17.85;100.00
61697;BME280;47610;52.252;20.922;2023-09-19T20:54:49;99944.34;;;17.78;100.00
61697;BME280;47610;52.252;20.922;2023-09-19T20:59:52;99953.71;;;17.73;100.00
61697;BME280;47610;52.252;20.922;2023-09-19T21:04:55;99954.06;;;17.68;100.00
61697;BME280;47610;52.252;20.922;2023-09-19T21:09:59;99958.21;;;17.62;100.00
61697;BME280;47610;52.252;20.922;2023-09-19T21:15:02;99963.11;;;17.56;100.00
61697;BME280;47610;52.252;20.922;2023-09-19T21:20:07;99968.61;;;17.48;100.00
61697;BME280;47610;52.252;20.922;2023-09-19T21:25:10;99968.40;;;17.42;100.00
61697;BME280;47610;52.252;20.922;2023-09-19T21:30:14;99970.70;;;17.36;100.00
61697;BME280;47610;52.252;20.922;2023-09-19T21:35:17;99967.65;;;17.28;100.00
61697;BME280;47610;52.252;20.922;2023-09-19T21:40:20;99975.18;;;17.26;100.00
61697;BME280;47610;52.252;20.922;2023-09-19T21:45:26;99974.10;;;17.21;100.00
61697;BME280;47610;52.252;20.922;2023-09-19T21:50:30;99972.02;;;17.17;100.00
61697;BME280;47610;52.252;20.922;2023-09-19T21:55:32;99976.91;;;17.12;100.00
61697;BME280;47610;52.252;20.922;2023-09-19T22:00:35;99970.63;;;17.09;100.00
61697;BME280;47610;52.252;20.922;2023-09-19T22:05:38;99971.77;;;17.04;100.00
61697;BME280;47610;52.252;20.922;2023-09-19T22:10:43;99969.66;;;16.98;100.00
61697;BME280;47610;52.252;20.922;2023-09-19T22:15:46;99969.95;;;16.90;100.00
61697;BME280;47610;52.252;20.922;2023-09-19T22:20:49;99977.48;;;16.88;100.00
61697;BME280;47610;52.252;20.922;2023-09-19T22:25:53;99975.71;;;16.86;100.00
61697;BME280;47610;52.252;20.922;2023-09-19T22:30:56;99978.89;;;16.82;100.00
61697;BME280;47610;52.252;20.922;2023-09-19T22:35:59;99979.09;;;16.80;100.00
61697;BME280;47610;52.252;20.922;2023-09-19T22:41:02;99974.41;;;16.77;100.00
61697;BME280;47610;52.252;20.922;2023-09-19T22:46:05;99972.80;;;16.73;100.00
61697;BME280;47610;52.252;20.922;2023-09-19T22:51:08;99979.61;;;16.69;100.00
61697;BME280;47610;52.252;20.922;2023-09-19T22:56:12;99983.39;;;16.67;100.00
61697;BME280;47610;52.252;20.922;2023-09-19T23:01:16;99985.73;;;16.64;100.00
61697;BME280;47610;52.252;20.922;2023-09-19T23:06:20;99988.30;;;16.63;100.00
61697;BME280;47610;52.252;20.922;2023-09-19T23:11:23;99996.40;;;16.58;100.00
61697;BME280;47610;52.252;20.922;2023-09-19T23:16:26;99999.96;;;16.55;100.00
61697;BME280;47610;52.252;20.922;2023-09-19T23:21:29;100006.13;;;16.52;100.00
61697;BME280;47610;52.252;20.922;2023-09-19T23:26:32;100007.11;;;16.50;100.00
61697;BME280;47610;52.252;20.922;2023-09-19T23:31:36;100003.45;;;16.46;100.00
61697;BME280;47610;52.252;20.922;2023-09-19T23:36:39;100004.72;;;16.44;100.00
61697;BME280;47610;52.252;20.922;2023-09-19T23:41:42;100011.19;;;16.40;100.00
61697;BME280;47610;52.252;20.922;2023-09-19T23:46:45;100017.02;;;16.35;100.00
61697;BME280;47610;52.252;20.922;2023-09-19T23:51:48;100019.60;;;16.30;100.00
61697;BME280;47610;52.252;20.922;2023-09-19T23:56:52;100018.48;;;16.28;100.00
